createdAt,value
2018-03-20T00:00:16.016Z,8.9
2018-03-20T00:06:16.566Z,10.18
2018-03-20T00:10:17.217Z,7.32
2018-03-20T00:16:17.802Z,8.22
2018-03-20T00:20:18.440Z,8.34
2018-03-20T00:22:18.996Z,6.77
2018-03-20T00:26:19.598Z,7.25
2018-03-20T00:32:20.156Z,6.36
2018-03-20T00:36:20.718Z,6.94
2018-03-20T00:42:21.356Z,5.84
2018-03-20T00:46:22.079Z,9.16
2018-03-20T00:48:22.798Z,7.59
2018-03-20T00:52:23.418Z,8.84
2018-03-20T00:58:24.053Z,8.79
2018-03-20T01:02:24.695Z,10.09
2018-03-20T01:08:25.257Z,8.58
2018-03-20T01:14:25.917Z,7.12
2018-03-20T01:18:26.565Z,7.58
2018-03-20T01:24:27.104Z,6.43
2018-03-20T01:28:27.738Z,8.09
2018-03-20T01:34:28.380Z,8.02
2018-03-20T01:40:29.027Z,8.09
2018-03-20T01:44:29.663Z,7.1
2018-03-20T01:50:30.426Z,7.32
2018-03-20T01:54:31.189Z,7.34
2018-03-20T02:00:31.791Z,8.54
2018-03-20T02:06:32.472Z,6.27
2018-03-20T02:10:33.248Z,7.05
2018-03-20T02:16:33.860Z,6.56
2018-03-20T02:20:34.367Z,6.98
2018-03-20T02:22:34.932Z,6.82
2018-03-20T02:26:35.588Z,5.94
2018-03-20T02:32:36.278Z,6.34
2018-03-20T02:36:36.824Z,6.84
2018-03-20T02:42:37.390Z,6.84
2018-03-20T02:46:37.992Z,6.74
2018-03-20T02:48:38.589Z,6.82
2018-03-20T02:52:39.209Z,7.73
2018-03-20T02:58:39.840Z,6.06
2018-03-20T03:02:40.477Z,7.15
2018-03-20T03:08:41.150Z,5.97
2018-03-20T03:12:41.712Z,7.5
2018-03-20T03:14:42.366Z,5.18
2018-03-20T03:18:42.982Z,6.14
2018-03-20T03:24:43.552Z,5.11
2018-03-20T03:28:44.121Z,6.51
2018-03-20T03:34:44.950Z,5.6
2018-03-20T03:40:45.569Z,5.77
2018-03-20T03:44:46.187Z,5.77
2018-03-20T03:50:46.769Z,5
2018-03-20T03:54:47.444Z,5.63
2018-03-20T04:00:48.064Z,6.67
2018-03-20T04:06:48.547Z,4.91
2018-03-20T04:10:49.598Z,6.1
2018-03-20T04:16:50.335Z,6.1
2018-03-20T04:20:51.016Z,6.1
2018-03-20T04:26:51.603Z,6
2018-03-20T04:32:52.272Z,4.64
2018-03-20T04:36:52.994Z,6.68
2018-03-20T04:42:53.583Z,6.35
2018-03-20T04:46:54.315Z,6.32
2018-03-20T04:48:54.878Z,5.12
2018-03-20T04:52:55.532Z,6.26
2018-03-20T04:58:56.146Z,5.42
2018-03-20T05:02:56.696Z,6.86
2018-03-20T05:08:57.366Z,7.29
2018-03-20T05:12:57.981Z,7.36
2018-03-20T05:14:58.533Z,7.2
2018-03-20T05:18:59.138Z,6.85
2018-03-20T05:24:59.784Z,5.85
2018-03-20T05:29:00.398Z,5.96
2018-03-20T05:35:01.046Z,4.94
2018-03-20T05:39:01.723Z,6.49
2018-03-20T05:41:02.245Z,7.29
2018-03-20T05:45:02.901Z,7.05
2018-03-20T05:51:03.503Z,6.55
2018-03-20T05:55:03.977Z,8.59
2018-03-20T06:01:04.682Z,5.96
2018-03-20T06:07:05.356Z,7.1
2018-03-20T06:11:05.848Z,10.77
2018-03-20T06:17:06.453Z,8.53
2018-03-20T06:21:07.152Z,9.95
2018-03-20T06:27:07.801Z,10.45
2018-03-20T06:33:08.511Z,9.5
2018-03-20T06:37:09.231Z,9.68
2018-03-20T06:43:09.832Z,9.47
2018-03-20T06:47:10.370Z,9.28
2018-03-20T06:53:11.162Z,9.68
2018-03-20T06:59:11.699Z,7.92
2018-03-20T07:03:12.432Z,12.25
2018-03-20T07:09:12.906Z,10.08
2018-03-20T07:13:13.694Z,12.95
2018-03-20T07:15:14.540Z,9.09
2018-03-20T07:19:15.095Z,9.78
2018-03-20T07:25:15.671Z,9.23
2018-03-20T07:29:16.406Z,8.55
2018-03-20T07:35:16.942Z,8.14
2018-03-20T07:39:17.437Z,9.87
2018-03-20T07:41:18.118Z,6.03
2018-03-20T07:45:18.993Z,6.75
2018-03-20T07:51:19.713Z,4.3
2018-03-20T07:55:20.412Z,5.63
2018-03-20T08:01:21.040Z,8.84
2018-03-20T08:05:21.745Z,8.82
2018-03-20T08:07:22.179Z,7.2
2018-03-20T08:11:23.130Z,6.33
2018-03-20T08:17:23.764Z,5.11
2018-03-20T08:21:24.354Z,6.25
2018-03-20T08:27:24.969Z,6.48
2018-03-20T08:33:25.656Z,3.86
2018-03-20T08:37:26.240Z,3.56
2018-03-20T08:43:26.936Z,2.91
2018-03-20T08:47:27.575Z,3.18
2018-03-20T08:53:28.339Z,2.22
2018-03-20T08:59:29.085Z,2.96
2018-03-20T09:03:29.796Z,3.39
2018-03-20T09:09:30.419Z,3.35
2018-03-20T09:13:31.073Z,3.88
2018-03-20T09:19:31.727Z,4.42
2018-03-20T09:25:32.346Z,3.54
2018-03-20T09:29:33.614Z,2.46
2018-03-20T09:35:34.284Z,3.22
2018-03-20T09:39:34.855Z,3.35
2018-03-20T09:41:35.433Z,3.34
2018-03-20T09:45:36.040Z,4.06
2018-03-20T09:51:36.740Z,3.35
2018-03-20T09:55:37.351Z,2.98
2018-03-20T10:01:37.932Z,4.4
2018-03-20T10:05:38.691Z,3.65
2018-03-20T10:07:39.307Z,2.78
2018-03-20T10:11:40.064Z,2.7
2018-03-20T10:17:40.739Z,3.11
2018-03-20T10:21:41.470Z,3.93
2018-03-20T10:27:42.191Z,4.08
2018-03-20T10:31:42.741Z,5.03
2018-03-20T10:33:43.347Z,3.13
2018-03-20T10:37:43.965Z,2.76
2018-03-20T10:43:44.603Z,3.68
2018-03-20T10:47:45.431Z,4.45
2018-03-20T10:53:52.772Z,2.85
